Time;durP1;ratioP1;P1;durP2;ratioP2;P2;SDS_P1;SDS_P2;PMS_P1;PMS_P2;Temp;Humidity;BMP_temperature;BMP_pressure;BME280_temperature;BME280_humidity;BME280_pressure;Samples;Min_cycle;Max_cycle;Signal;HPM_P1;HPM_P2
2021/08/26 00:07:44;;;;;;;2.50;1.27;;;;;;;15.76;100.00;100230.38;5181992;28;20184;-78
2021/08/26 00:10:16;;;;;;;2.85;1.35;;;;;;;15.75;100.00;100228.69;5183298;28;20038;-80
2021/08/26 00:12:46;;;;;;;3.50;1.38;;;;;;;15.65;100.00;100230.19;5184112;28;20499;-79
2021/08/26 00:15:17;;;;;;;4.37;1.40;;;;;;;15.64;100.00;100233.75;5183329;28;20024;-79
2021/08/26 00:17:48;;;;;;;3.33;1.50;;;;;;;15.57;100.00;100221.06;5183162;28;20287;-79
2021/08/26 00:20:19;;;;;;;4.97;1.65;;;;;;;15.50;100.00;100225.84;5183861;28;20022;-80
2021/08/26 00:22:49;;;;;;;7.10;1.90;;;;;;;15.52;100.00;100223.97;5183651;28;20076;-80
2021/08/26 00:25:19;;;;;;;5.50;1.55;;;;;;;15.58;100.00;100218.34;5183112;28;20030;-80
2021/08/26 00:27:50;;;;;;;4.07;1.58;;;;;;;15.56;100.00;100214.91;5184125;28;20028;-79
2021/08/26 00:30:20;;;;;;;5.85;1.92;;;;;;;15.64;100.00;100217.94;5183269;28;20055;-78
2021/08/26 00:32:51;;;;;;;6.18;1.90;;;;;;;15.57;100.00;100213.97;5183857;28;20029;-80
2021/08/26 00:35:21;;;;;;;4.88;1.60;;;;;;;15.63;100.00;100211.00;5183827;28;20091;-80
2021/08/26 00:37:51;;;;;;;3.25;1.50;;;;;;;15.51;100.00;100213.53;5183608;28;20057;-80
2021/08/26 00:40:22;;;;;;;5.15;1.67;;;;;;;15.61;100.00;100212.88;5182994;28;20563;-80
2021/08/26 00:42:52;;;;;;;5.65;1.40;;;;;;;15.64;100.00;100204.78;5184076;28;20084;-80
2021/08/26 00:45:22;;;;;;;5.05;1.38;;;;;;;15.55;100.00;100213.22;5183118;28;20152;-80
2021/08/26 00:47:53;;;;;;;5.07;1.42;;;;;;;15.58;100.00;100209.56;5178803;28;20030;-81
2021/08/26 00:50:25;;;;;;;4.15;1.50;;;;;;;15.60;100.00;100205.91;5181619;28;20033;-82
2021/08/26 00:52:56;;;;;;;4.53;1.23;;;;;;;15.60;100.00;100210.31;5178254;28;20087;-81
2021/08/26 00:55:26;;;;;;;7.15;1.48;;;;;;;15.67;100.00;100207.22;5182358;28;20040;-80
2021/08/26 00:57:57;;;;;;;5.13;1.50;;;;;;;15.67;100.00;100204.59;5183597;28;20112;-78
2021/08/26 01:00:27;;;;;;;6.00;1.40;;;;;;;15.75;100.00;100210.25;5183245;28;20499;-79
2021/08/26 01:02:57;;;;;;;3.92;1.60;;;;;;;15.67;100.00;100211.66;5182117;28;20439;-80
2021/08/26 01:05:49;;;;;;;5.73;1.90;;;;;;;15.69;100.00;100205.31;5183465;28;20028;-82
2021/08/26 01:08:26;;;;;;;3.33;1.35;;;;;;;15.71;100.00;100206.06;5181824;28;20144;-79
2021/08/26 01:10:59;;;;;;;4.57;1.20;;;;;;;15.71;100.00;100208.72;5182965;28;20040;-78
2021/08/26 01:13:39;;;;;;;4.85;1.40;;;;;;;15.76;100.00;100203.16;5182606;28;20026;-79
2021/08/26 01:16:12;;;;;;;3.58;1.50;;;;;;;15.67;100.00;100206.38;5183637;28;20026;-79
2021/08/26 01:18:45;;;;;;;7.30;1.75;;;;;;;15.71;100.00;100200.81;5183622;28;20387;-79
2021/08/26 01:21:18;;;;;;;4.20;1.42;;;;;;;15.72;100.00;100199.84;5180217;28;20514;-79
2021/08/26 01:24:00;;;;;;;5.70;1.58;;;;;;;15.59;100.00;100193.69;5181345;28;20025;-78
2021/08/26 01:26:40;;;;;;;5.07;1.58;;;;;;;15.65;100.00;100198.56;5181810;28;20052;-78
2021/08/26 01:29:13;;;;;;;9.30;1.80;;;;;;;15.65;100.00;100189.78;5181798;28;20040;-78
2021/08/26 01:31:44;;;;;;;4.13;1.40;;;;;;;15.69;100.00;100186.88;5181136;28;20108;-79
2021/08/26 01:34:15;;;;;;;6.78;2.08;;;;;;;15.55;100.00;100193.97;5180654;28;20670;-79
2021/08/26 01:36:46;;;;;;;8.55;1.60;;;;;;;15.63;100.00;100189.91;5181109;28;20113;-79
2021/08/26 01:39:17;;;;;;;6.90;1.92;;;;;;;15.64;100.00;100188.97;5181310;28;20630;-78
2021/08/26 01:41:50;;;;;;;7.85;1.95;;;;;;;15.72;100.00;100188.50;5181060;28;20026;-78
2021/08/26 01:44:27;;;;;;;6.38;1.90;;;;;;;15.57;100.00;100185.00;5181299;28;20100;-78
2021/08/26 01:47:08;;;;;;;4.78;1.60;;;;;;;15.66;100.00;100189.72;5181316;28;20032;-79
2021/08/26 01:49:38;;;;;;;8.05;1.90;;;;;;;15.64;100.00;100185.47;5181372;28;20040;-78
2021/08/26 01:52:08;;;;;;;4.43;1.73;;;;;;;15.62;100.00;100190.84;5182704;28;20037;-78
2021/08/26 01:54:38;;;;;;;4.47;1.67;;;;;;;15.60;100.00;100182.22;5182983;28;20367;-79
2021/08/26 01:57:09;;;;;;;8.00;2.07;;;;;;;15.63;100.00;100174.09;5181177;28;20484;-78
2021/08/26 01:59:39;;;;;;;4.70;1.77;;;;;;;15.63;100.00;100178.50;5181550;28;20363;-78
2021/08/26 02:02:09;;;;;;;8.17;1.90;;;;;;;15.54;100.00;100172.03;5180448;28;20272;-78
2021/08/26 02:04:39;;;;;;;7.28;1.88;;;;;;;15.56;100.00;100180.69;5181211;28;20276;-79
2021/08/26 02:07:10;;;;;;;9.35;2.05;;;;;;;15.60;100.00;100171.66;5180447;28;20032;-79
2021/08/26 02:09:41;;;;;;;7.55;2.05;;;;;;;15.57;100.00;100169.19;5180931;28;20472;-78
2021/08/26 02:12:11;;;;;;;6.78;1.88;;;;;;;15.53;100.00;100167.69;5180863;28;20036;-78
2021/08/26 02:14:41;;;;;;;7.18;2.05;;;;;;;15.57;100.00;100171.00;5181752;28;20180;-80
2021/08/26 02:17:12;;;;;;;8.98;1.98;;;;;;;15.46;100.00;100166.41;5163569;28;20526;-78
2021/08/26 02:19:42;;;;;;;12.00;2.40;;;;;;;15.40;100.00;100161.50;5180405;28;20033;-78
2021/08/26 02:22:12;;;;;;;6.32;1.80;;;;;;;15.53;100.00;100165.06;5180387;28;20678;-78
2021/08/26 02:24:43;;;;;;;7.60;1.83;;;;;;;15.46;100.00;100165.53;5180326;28;20025;-78
2021/08/26 02:27:13;;;;;;;6.40;1.80;;;;;;;15.35;100.00;100166.22;5180998;28;20025;-78
2021/08/26 02:29:43;;;;;;;6.25;1.83;;;;;;;15.50;100.00;100157.38;5181133;28;20292;-78
2021/08/26 02:32:14;;;;;;;9.32;2.15;;;;;;;15.52;100.00;100163.38;5178827;28;20035;-79
2021/08/26 02:34:44;;;;;;;8.70;2.10;;;;;;;15.50;100.00;100162.63;5176773;28;20017;-79
2021/08/26 02:37:15;;;;;;;6.65;1.80;;;;;;;15.50;100.00;100173.16;5164733;28;20525;-78
2021/08/26 02:39:45;;;;;;;8.63;2.10;;;;;;;15.53;100.00;100161.59;5180644;28;20442;-78
2021/08/26 02:42:15;;;;;;;8.95;2.15;;;;;;;15.56;100.00;100167.50;5180268;28;20065;-78
2021/08/26 02:44:45;;;;;;;5.72;2.03;;;;;;;15.55;100.00;100178.16;5180340;28;20044;-79
2021/08/26 02:47:16;;;;;;;6.43;1.75;;;;;;;15.57;100.00;100173.63;5180540;28;20702;-78
2021/08/26 02:49:47;;;;;;;8.50;2.03;;;;;;;15.58;100.00;100173.56;5179907;28;20167;-78
2021/08/26 02:52:17;;;;;;;7.50;1.95;;;;;;;15.64;100.00;100175.78;5180373;28;20030;-78
2021/08/26 02:54:47;;;;;;;6.22;1.95;;;;;;;15.48;100.00;100169.78;5179636;28;20018;-78
2021/08/26 02:57:18;;;;;;;7.93;1.77;;;;;;;15.53;100.00;100156.34;5180456;28;20041;-79
2021/08/26 02:59:48;;;;;;;8.45;1.98;;;;;;;15.52;100.00;100159.91;5179465;28;20014;-78
2021/08/26 03:02:18;;;;;;;8.03;2.40;;;;;;;15.55;100.00;100160.53;5180048;28;20421;-78
2021/08/26 03:04:48;;;;;;;6.87;1.87;;;;;;;15.52;100.00;100160.75;5179661;28;20366;-79
2021/08/26 03:07:19;;;;;;;11.63;2.00;;;;;;;15.47;100.00;100160.19;5179654;28;20301;-78
2021/08/26 03:09:49;;;;;;;7.60;2.10;;;;;;;15.46;100.00;100163.78;5180050;28;20293;-78
2021/08/26 03:12:19;;;;;;;5.22;1.90;;;;;;;15.51;100.00;100163.50;5180232;28;20057;-79
2021/08/26 03:14:50;;;;;;;8.02;2.28;;;;;;;15.34;100.00;100161.88;5180108;28;20026;-78
2021/08/26 03:17:20;;;;;;;9.73;2.37;;;;;;;15.37;100.00;100164.31;5179515;28;20107;-79
2021/08/26 03:19:50;;;;;;;6.67;1.90;;;;;;;15.41;100.00;100165.84;5179990;28;20279;-78
2021/08/26 03:22:21;;;;;;;9.52;2.35;;;;;;;15.42;100.00;100172.81;5179899;28;20330;-79
2021/08/26 03:24:51;;;;;;;8.13;2.10;;;;;;;15.40;100.00;100172.03;5178989;28;20030;-78
2021/08/26 03:27:21;;;;;;;8.13;2.30;;;;;;;15.53;100.00;100172.13;5178949;28;20033;-79
2021/08/26 03:29:51;;;;;;;8.73;2.20;;;;;;;15.51;100.00;100174.03;5178230;28;20128;-79
2021/08/26 03:32:22;;;;;;;9.48;2.42;;;;;;;15.43;100.00;100166.59;5183393;28;20065;-78
2021/08/26 03:34:52;;;;;;;10.93;2.20;;;;;;;15.43;100.00;100163.09;5183124;28;20043;-78
2021/08/26 03:37:22;;;;;;;11.38;2.67;;;;;;;15.38;100.00;100165.19;5184328;28;20033;-81
2021/08/26 03:39:53;;;;;;;10.43;2.20;;;;;;;15.39;100.00;100170.34;5183491;28;20117;-81
2021/08/26 03:42:23;;;;;;;10.48;2.28;;;;;;;15.39;100.00;100169.50;5183201;28;20338;-81
2021/08/26 03:44:53;;;;;;;11.95;2.10;;;;;;;15.40;100.00;100172.03;5183149;28;20080;-79
2021/08/26 03:47:23;;;;;;;8.90;2.53;;;;;;;15.43;100.00;100171.88;5182812;28;20630;-79
2021/08/26 03:49:54;;;;;;;11.40;2.33;;;;;;;15.45;100.00;100174.38;5182796;28;20293;-78
2021/08/26 03:52:24;;;;;;;5.40;1.80;;;;;;;15.47;100.00;100183.91;5183020;28;20092;-79
2021/08/26 03:54:54;;;;;;;7.03;2.03;;;;;;;15.50;100.00;100178.44;5181216;28;20285;-78
2021/08/26 03:57:25;;;;;;;8.88;1.90;;;;;;;15.47;100.00;100181.25;5182233;28;20140;-79
2021/08/26 03:59:55;;;;;;;12.93;2.83;;;;;;;15.40;100.00;100174.66;5182015;28;20026;-81
2021/08/26 04:02:25;;;;;;;8.88;2.20;;;;;;;15.46;100.00;100171.66;5182863;28;20032;-79
2021/08/26 04:04:55;;;;;;;10.05;2.47;;;;;;;15.35;100.00;100168.84;5182655;28;20400;-79
2021/08/26 04:07:26;;;;;;;8.50;2.20;;;;;;;15.29;100.00;100171.88;5182183;28;20040;-78
2021/08/26 04:09:56;;;;;;;7.53;1.83;;;;;;;15.27;100.00;100165.81;5182587;28;20030;-77
2021/08/26 04:12:27;;;;;;;8.85;2.00;;;;;;;15.43;100.00;100155.19;5182905;28;20612;-78
2021/08/26 04:14:58;;;;;;;8.55;2.20;;;;;;;15.43;100.00;100150.78;5181972;28;20038;-78
2021/08/26 04:17:28;;;;;;;6.10;2.30;;;;;;;15.50;100.00;100154.72;5181610;28;20021;-78
2021/08/26 04:19:59;;;;;;;7.50;2.15;;;;;;;15.42;100.00;100157.00;5163195;28;20025;-78
2021/08/26 04:22:29;;;;;;;7.10;2.00;;;;;;;15.45;100.00;100154.19;5182694;28;20402;-77
2021/08/26 04:25:00;;;;;;;7.75;2.13;;;;;;;15.37;100.00;100152.97;5182918;28;20029;-81
2021/08/26 04:27:30;;;;;;;11.60;2.20;;;;;;;15.32;100.00;100153.22;5182442;28;20439;-81
2021/08/26 04:30:00;;;;;;;7.38;1.95;;;;;;;15.26;100.00;100163.25;5181919;28;20302;-78
2021/08/26 04:32:30;;;;;;;10.60;2.38;;;;;;;15.23;100.00;100161.69;5182114;28;20443;-77
2021/08/26 04:35:01;;;;;;;7.75;2.30;;;;;;;15.31;100.00;100166.47;5181615;28;20033;-77
2021/08/26 04:37:31;;;;;;;7.18;2.78;;;;;;;15.26;100.00;100169.38;5181549;28;20588;-78
2021/08/26 04:40:01;;;;;;;7.72;2.03;;;;;;;15.23;100.00;100166.94;5181080;28;20077;-77
2021/08/26 04:42:32;;;;;;;6.50;2.33;;;;;;;15.27;100.00;100165.81;5180595;28;20030;-79
2021/08/26 04:45:02;;;;;;;8.18;2.17;;;;;;;15.29;100.00;100158.69;5181868;28;20242;-79
2021/08/26 04:47:34;;;;;;;10.80;2.53;;;;;;;15.19;100.00;100154.06;5181812;28;20053;-78
2021/08/26 04:50:05;;;;;;;6.47;1.92;;;;;;;15.37;100.00;100150.31;5181304;28;20384;-78
2021/08/26 04:52:35;;;;;;;11.02;2.17;;;;;;;15.35;100.00;100144.31;5162243;28;20030;-78
2021/08/26 04:55:06;;;;;;;6.18;2.05;;;;;;;15.28;100.00;100146.44;5181284;28;20076;-78
2021/08/26 04:57:37;;;;;;;6.70;2.10;;;;;;;15.23;100.00;100151.16;5181241;28;20029;-78
2021/08/26 05:00:07;;;;;;;7.95;2.10;;;;;;;15.43;100.00;100156.06;5181217;28;20021;-78
2021/08/26 05:02:38;;;;;;;13.18;2.40;;;;;;;15.39;100.00;100159.81;5181308;28;20533;-79
2021/08/26 05:05:09;;;;;;;7.88;2.13;;;;;;;15.48;100.00;100164.50;5180485;28;20096;-79
2021/08/26 05:07:39;;;;;;;6.07;2.03;;;;;;;15.47;100.00;100165.47;5181050;28;20030;-78
2021/08/26 05:10:09;;;;;;;9.27;2.40;;;;;;;15.46;100.00;100169.03;5180948;28;20513;-78
2021/08/26 05:12:39;;;;;;;11.23;2.22;;;;;;;15.37;100.00;100163.50;5181720;28;20315;-78
2021/08/26 05:15:10;;;;;;;8.00;2.10;;;;;;;15.21;100.00;100170.59;5181041;28;20036;-79
2021/08/26 05:17:40;;;;;;;8.98;2.33;;;;;;;15.35;100.00;100171.47;5181152;28;20296;-79
2021/08/26 05:20:11;;;;;;;7.65;1.92;;;;;;;15.41;100.00;100172.88;5181399;28;20463;-79
2021/08/26 05:22:41;;;;;;;10.07;2.53;;;;;;;15.48;100.00;100169.78;5181149;28;20033;-79
2021/08/26 05:25:12;;;;;;;8.52;2.33;;;;;;;15.50;100.00;100170.53;5181099;28;20053;-78
2021/08/26 05:27:42;;;;;;;6.85;2.03;;;;;;;15.49;100.00;100170.63;5181522;28;20034;-79
2021/08/26 05:30:12;;;;;;;8.88;2.85;;;;;;;15.47;100.00;100167.22;5183654;28;20030;-80
2021/08/26 05:32:43;;;;;;;8.15;2.40;;;;;;;15.49;100.00;100174.13;5185734;28;20110;-79
2021/08/26 05:35:13;;;;;;;10.40;2.60;;;;;;;15.43;100.00;100166.59;5185262;28;20033;-79
2021/08/26 05:37:43;;;;;;;8.35;2.33;;;;;;;15.44;100.00;100173.56;5186107;28;20033;-79
2021/08/26 05:40:13;;;;;;;10.32;2.40;;;;;;;15.58;100.00;100170.91;5185495;28;20120;-79
2021/08/26 05:42:44;;;;;;;9.55;2.17;;;;;;;15.63;100.00;100174.09;5184850;28;20029;-81
2021/08/26 05:45:14;;;;;;;8.73;2.70;;;;;;;15.49;100.00;100170.63;5184893;28;20117;-83
2021/08/26 05:47:44;;;;;;;10.00;2.57;;;;;;;15.61;100.00;100170.72;5186233;28;20037;-81
2021/08/26 05:50:14;;;;;;;9.70;2.60;;;;;;;15.68;100.00;100179.09;5184722;28;20300;-81
2021/08/26 05:52:45;;;;;;;12.87;2.80;;;;;;;15.72;100.00;100173.50;5182137;28;20322;-81
2021/08/26 05:55:16;;;;;;;7.40;2.47;;;;;;;15.68;100.00;100172.03;5185434;28;20280;-82
2021/08/26 05:57:47;;;;;;;7.03;2.28;;;;;;;15.48;100.00;100163.66;5182404;28;20273;-79
2021/08/26 06:00:17;;;;;;;10.02;2.40;;;;;;;15.49;100.00;100167.97;5179971;28;20022;-79
2021/08/26 06:02:47;;;;;;;10.77;2.60;;;;;;;15.52;100.00;100175.72;5180029;28;20026;-79
2021/08/26 06:05:18;;;;;;;6.73;2.40;;;;;;;15.54;100.00;100176.47;5179678;28;20064;-79
2021/08/26 06:07:48;;;;;;;8.40;2.45;;;;;;;15.65;100.00;100174.84;5179102;28;20750;-78
2021/08/26 06:10:19;;;;;;;7.78;2.50;;;;;;;15.71;100.00;100173.63;5172543;28;20049;-79
2021/08/26 06:12:49;;;;;;;9.60;2.10;;;;;;;15.74;100.00;100179.53;5180210;28;20033;-78
2021/08/26 06:15:19;;;;;;;9.80;2.50;;;;;;;15.67;100.00;100178.22;5179287;28;20376;-79
2021/08/26 06:17:50;;;;;;;9.20;2.67;;;;;;;15.78;100.00;100178.41;5162568;28;20280;-79
2021/08/26 06:20:21;;;;;;;8.20;2.42;;;;;;;15.99;100.00;100171.78;5179770;28;20057;-79
2021/08/26 06:22:51;;;;;;;8.98;2.20;;;;;;;15.94;100.00;100179.16;5179598;28;20033;-78
2021/08/26 06:25:21;;;;;;;9.02;2.28;;;;;;;16.06;100.00;100170.44;5179251;28;20144;-79
2021/08/26 06:27:56;;;;;;;15.87;3.17;;;;;;;16.18;100.00;100169.66;5179091;28;20399;-78
2021/08/26 06:30:27;;;;;;;11.15;2.65;;;;;;;16.06;100.00;100177.50;5179798;28;20408;-78
2021/08/26 06:32:57;;;;;;;11.20;2.65;;;;;;;16.12;100.00;100177.09;5179894;28;20475;-78
2021/08/26 06:35:27;;;;;;;11.15;2.60;;;;;;;16.26;100.00;100174.44;5179588;28;20050;-79
2021/08/26 06:37:58;;;;;;;7.87;2.67;;;;;;;16.15;100.00;100167.22;5180591;28;20021;-79
2021/08/26 06:40:28;;;;;;;9.70;2.72;;;;;;;16.13;100.00;100170.88;5179314;28;20287;-79
2021/08/26 06:42:58;;;;;;;9.50;2.70;;;;;;;16.13;100.00;100178.78;5179967;28;20116;-78
2021/08/26 06:45:29;;;;;;;9.43;2.42;;;;;;;16.20;100.00;100169.56;5179083;28;20757;-79
2021/08/26 06:47:59;;;;;;;6.95;2.20;;;;;;;16.36;100.00;100172.94;5179974;28;20025;-79
2021/08/26 06:50:29;;;;;;;7.67;2.47;;;;;;;16.28;100.00;100162.84;5180123;28;20034;-79
2021/08/26 06:52:59;;;;;;;8.75;2.35;;;;;;;16.64;100.00;100155.16;5179473;28;20280;-78
2021/08/26 06:55:30;;;;;;;8.98;2.70;;;;;;;16.68;100.00;100161.06;5183039;28;20017;-79
2021/08/26 06:58:00;;;;;;;8.45;2.25;;;;;;;16.61;100.00;100165.06;5179684;28;20022;-80
2021/08/26 07:00:30;;;;;;;10.52;2.78;;;;;;;16.52;100.00;100181.53;5179664;28;20022;-79
2021/08/26 07:03:00;;;;;;;7.57;2.50;;;;;;;16.59;100.00;100175.72;5179583;28;20030;-78
2021/08/26 07:05:31;;;;;;;11.37;3.10;;;;;;;16.71;100.00;100167.00;5180381;28;20300;-78
2021/08/26 07:08:01;;;;;;;7.40;2.70;;;;;;;16.65;100.00;100151.56;5183895;28;20284;-80
2021/08/26 07:10:31;;;;;;;11.15;2.72;;;;;;;16.75;100.00;100142.06;5183416;28;20085;-79
2021/08/26 07:13:02;;;;;;;9.00;2.45;;;;;;;17.25;100.00;100150.88;5183592;28;20021;-79
2021/08/26 07:15:32;;;;;;;8.88;2.35;;;;;;;17.32;100.00;100154.78;5183290;28;20030;-79
2021/08/26 07:18:03;;;;;;;6.60;2.28;;;;;;;17.28;100.00;100161.22;5181747;28;20038;-78
2021/08/26 07:20:33;;;;;;;8.00;2.85;;;;;;;17.39;100.00;100157.88;5183542;28;20514;-78
2021/08/26 07:23:04;;;;;;;9.35;2.58;;;;;;;17.49;98.54;100166.84;5182817;28;20026;-79
2021/08/26 07:25:34;;;;;;;5.93;2.30;;;;;;;17.26;98.42;100162.28;5183282;28;20030;-79
2021/08/26 07:28:06;;;;;;;9.57;2.50;;;;;;;17.04;100.00;100165.56;5183256;28;20307;-78
2021/08/26 07:30:38;;;;;;;10.00;2.30;;;;;;;17.03;100.00;100168.31;5183340;28;20053;-78
2021/08/26 07:33:08;;;;;;;12.75;2.88;;;;;;;17.00;100.00;100152.69;5183581;28;20033;-78
2021/08/26 07:35:38;;;;;;;8.10;2.20;;;;;;;17.21;100.00;100152.06;5182784;28;20388;-77
2021/08/26 07:38:09;;;;;;;8.90;3.05;;;;;;;17.32;98.85;100152.13;5183115;28;20041;-77
2021/08/26 07:40:39;;;;;;;7.80;2.80;;;;;;;17.28;99.22;100149.84;5182866;28;20514;-78
2021/08/26 07:43:09;;;;;;;7.80;2.42;;;;;;;17.17;100.00;100150.53;5181941;28;20033;-78
2021/08/26 07:45:40;;;;;;;12.77;2.88;;;;;;;17.30;98.54;100150.56;5179016;28;20026;-81
2021/08/26 07:48:11;;;;;;;8.05;2.35;;;;;;;17.47;99.53;100150.25;5179759;28;20546;-78
2021/08/26 07:50:41;;;;;;;10.57;2.58;;;;;;;17.49;98.73;100154.47;5180137;28;20045;-78
2021/08/26 07:53:11;;;;;;;11.63;2.97;;;;;;;17.59;98.84;100152.88;5180522;28;20041;-78
2021/08/26 07:55:41;;;;;;;8.45;2.33;;;;;;;17.50;97.26;100150.03;5182273;28;20029;-78
2021/08/26 07:58:12;;;;;;;12.43;2.63;;;;;;;17.32;98.53;100143.38;5181004;28;20088;-81
2021/08/26 08:00:42;;;;;;;10.80;2.55;;;;;;;17.34;98.07;100144.97;5181437;28;20048;-80
2021/08/26 08:03:12;;;;;;;6.00;2.10;;;;;;;17.65;97.85;100146.31;5178353;28;20057;-79
2021/08/26 08:05:42;;;;;;;8.50;2.40;;;;;;;17.83;95.75;100145.00;5179276;28;20379;-78
2021/08/26 08:08:13;;;;;;;6.95;1.95;;;;;;;18.23;94.38;100143.78;5180824;28;20853;-78
2021/08/26 08:10:43;;;;;;;8.45;2.35;;;;;;;18.20;94.00;100146.66;5181299;28;20129;-78
2021/08/26 08:13:13;;;;;;;11.15;2.30;;;;;;;18.22;92.70;100142.09;5180203;28;20038;-78
2021/08/26 08:15:44;;;;;;;8.35;2.40;;;;;;;18.29;91.97;100153.94;5181005;28;20076;-78
2021/08/26 08:18:14;;;;;;;6.72;1.95;;;;;;;18.39;90.92;100147.88;5152006;28;20078;-82
2021/08/26 08:20:46;;;;;;;6.57;2.08;;;;;;;18.32;89.95;100164.31;5182121;28;20056;-80
2021/08/26 08:23:16;;;;;;;8.23;2.03;;;;;;;18.12;91.02;100163.09;5179785;28;20187;-80
2021/08/26 08:25:47;;;;;;;8.10;2.45;;;;;;;18.27;92.13;100171.69;5181593;28;20472;-79
2021/08/26 08:28:17;;;;;;;7.23;2.00;;;;;;;18.00;93.49;100171.91;5181538;28;20290;-81
2021/08/26 08:30:48;;;;;;;7.13;1.95;;;;;;;17.75;93.20;100177.28;5183823;28;20335;-80
2021/08/26 08:33:18;;;;;;;8.27;2.30;;;;;;;17.98;95.29;100175.63;5183202;28;20326;-79
2021/08/26 08:35:48;;;;;;;8.75;2.30;;;;;;;17.94;92.97;100179.44;5183282;28;20057;-79
2021/08/26 08:38:18;;;;;;;8.23;2.10;;;;;;;17.99;92.66;100182.63;5182962;28;20109;-79
2021/08/26 08:40:49;;;;;;;9.40;2.30;;;;;;;18.01;92.77;100180.69;5165408;28;20017;-81
2021/08/26 08:43:19;;;;;;;9.32;2.20;;;;;;;18.22;93.80;100184.44;5183638;28;20643;-81
2021/08/26 08:45:50;;;;;;;10.27;2.20;;;;;;;18.06;92.74;100183.84;5182848;28;20615;-82
2021/08/26 08:48:21;;;;;;;6.43;2.20;;;;;;;17.92;92.56;100189.28;5182190;28;20089;-79
2021/08/26 08:50:52;;;;;;;11.45;2.95;;;;;;;17.81;94.04;100189.22;5182487;28;20270;-80
2021/08/26 08:53:22;;;;;;;8.68;2.30;;;;;;;17.59;94.05;100186.38;5182568;28;20061;-80
2021/08/26 08:55:52;;;;;;;10.55;2.53;;;;;;;17.41;95.72;100185.03;5182370;28;20049;-82
2021/08/26 08:58:23;;;;;;;7.50;2.47;;;;;;;17.33;96.50;100187.34;5183198;28;20050;-79
2021/08/26 09:00:53;;;;;;;10.68;2.35;;;;;;;17.35;95.32;100182.81;5178625;28;20129;-79
2021/08/26 09:03:24;;;;;;;5.53;2.20;;;;;;;17.34;97.33;100183.78;5177664;28;20053;-79
2021/08/26 09:05:59;;;;;;;9.98;2.60;;;;;;;17.52;97.05;100177.19;5178815;28;20100;-79
2021/08/26 09:08:31;;;;;;;9.45;2.58;;;;;;;17.47;95.72;100181.97;5180169;28;20076;-79
2021/08/26 09:11:20;;;;;;;7.78;2.13;;;;;;;17.26;96.85;100186.03;5179838;28;20065;-81
2021/08/26 09:13:50;;;;;;;8.73;2.25;;;;;;;17.28;95.21;100187.66;5183932;28;20129;-81
2021/08/26 09:16:38;;;;;;;6.73;2.17;;;;;;;17.28;97.21;100197.38;5182297;28;20132;-80
2021/08/26 09:19:31;;;;;;;6.55;2.08;;;;;;;17.36;97.45;100200.34;5182254;28;20280;-80
2021/08/26 09:22:04;;;;;;;5.95;1.73;;;;;;;17.27;97.90;100199.16;5178323;28;20050;-79
2021/08/26 09:24:46;;;;;;;8.13;2.22;;;;;;;17.27;98.38;100198.31;5184070;28;20060;-81
2021/08/26 09:27:32;;;;;;;15.02;2.60;;;;;;;17.37;96.61;100188.84;5180839;28;20443;-80
2021/08/26 09:30:06;;;;;;;5.80;1.90;;;;;;;17.37;95.59;100191.47;5183309;28;20032;-80
2021/08/26 09:32:42;;;;;;;7.50;1.90;;;;;;;17.43;95.87;100191.03;5183659;28;20038;-80
2021/08/26 09:35:14;;;;;;;5.55;1.80;;;;;;;17.44;94.35;100185.66;5183871;28;20033;-80
2021/08/26 09:37:56;;;;;;;6.10;1.80;;;;;;;17.51;95.05;100181.63;5183883;28;20121;-81
2021/08/26 09:40:30;;;;;;;6.60;2.00;;;;;;;17.45;95.40;100174.13;5183073;28;20030;-81
2021/08/26 09:43:05;;;;;;;6.05;1.77;;;;;;;17.43;97.17;100140.84;5184673;28;20022;-80
2021/08/26 09:45:38;;;;;;;7.63;1.70;;;;;;;17.49;96.30;100141.25;5182909;28;20376;-78
2021/08/26 09:48:13;;;;;;;6.63;1.95;;;;;;;17.38;98.19;100156.19;5180662;28;20844;-78
2021/08/26 09:50:46;;;;;;;10.27;2.10;;;;;;;17.33;96.19;100166.19;5180429;28;20117;-78
2021/08/26 09:53:21;;;;;;;5.10;1.90;;;;;;;17.70;97.18;100167.97;5176767;28;20085;-78
2021/08/26 09:55:52;;;;;;;8.40;1.88;;;;;;;17.90;95.38;100167.38;5180248;28;20052;-78
2021/08/26 09:58:25;;;;;;;7.07;2.13;;;;;;;18.15;95.92;100167.31;5180683;28;20531;-79
2021/08/26 10:01:06;;;;;;;6.57;1.92;;;;;;;18.33;95.71;100168.66;5180047;28;20033;-78
2021/08/26 10:03:36;;;;;;;6.10;1.70;;;;;;;18.39;93.14;100174.34;5179795;28;20052;-78
2021/08/26 10:06:08;;;;;;;6.78;1.85;;;;;;;18.09;92.37;100163.31;5178620;28;20034;-79
2021/08/26 10:08:41;;;;;;;5.53;1.58;;;;;;;18.14;92.84;100171.75;5179827;28;20044;-79
2021/08/26 10:11:15;;;;;;;6.85;1.80;;;;;;;17.97;92.16;100177.41;5180100;28;20447;-79
2021/08/26 10:13:47;;;;;;;4.63;1.50;;;;;;;17.98;92.23;100175.63;5176161;28;20065;-79
2021/08/26 10:16:18;;;;;;;8.93;1.85;;;;;;;17.82;92.88;100157.38;5179615;28;20049;-80
2021/08/26 10:18:49;;;;;;;7.85;1.50;;;;;;;17.88;91.46;100154.31;5179298;28;20383;-78
2021/08/26 10:21:19;;;;;;;5.45;1.20;;;;;;;18.15;92.88;100162.84;5179528;28;20199;-79
2021/08/26 10:23:49;;;;;;;7.65;1.80;;;;;;;18.65;91.87;100165.28;5179910;28;20228;-78
2021/08/26 10:26:20;;;;;;;4.57;1.17;;;;;;;18.83;89.44;100167.41;5179912;28;20438;-79
2021/08/26 10:28:51;;;;;;;7.13;2.35;;;;;;;19.02;87.39;100166.84;5179602;28;20057;-79
2021/08/26 10:31:26;;;;;;;4.15;1.00;;;;;;;18.66;85.41;100166.16;5179758;28;20063;-78
2021/08/26 10:34:21;;;;;;;6.88;1.30;;;;;;;18.82;85.91;100171.03;5179322;28;20575;-78
2021/08/26 10:36:54;;;;;;;5.13;1.40;;;;;;;18.60;87.49;100169.25;5176596;28;20075;-79
2021/08/26 10:39:32;;;;;;;3.80;1.10;;;;;;;18.37;85.17;100167.47;5179677;28;20122;-79
2021/08/26 10:42:17;;;;;;;3.38;1.02;;;;;;;18.49;87.23;100169.22;5179650;28;20025;-78
2021/08/26 10:45:03;;;;;;;5.68;1.17;;;;;;;18.70;88.20;100167.59;5175970;28;20084;-79
2021/08/26 10:47:49;;;;;;;4.47;1.10;;;;;;;18.61;86.57;100163.84;5176427;28;20045;-79
2021/08/26 10:50:24;;;;;;;4.18;0.98;;;;;;;18.72;83.57;100163.84;5178528;28;20484;-79
2021/08/26 10:53:04;;;;;;;3.92;0.82;;;;;;;18.94;82.88;100164.78;5177239;28;20391;-78
2021/08/26 10:55:41;;;;;;;3.80;1.13;;;;;;;19.02;81.88;100169.50;5178250;28;20389;-79
2021/08/26 11:00:54;;;;;;;6.57;1.48;;;;;;;19.27;83.71;100172.00;5176577;28;20495;-78
2021/08/26 11:03:45;;;;;;;4.10;1.40;;;;;;;19.57;83.59;100169.56;5177089;28;20607;-78
2021/08/26 11:06:19;;;;;;;6.93;1.63;;;;;;;19.59;84.32;100170.31;5135760;28;20435;-79
2021/08/26 11:08:54;;;;;;;8.60;1.75;;;;;;;19.76;84.79;100170.66;5179304;28;20030;-82
2021/08/26 11:11:28;;;;;;;6.63;1.70;;;;;;;19.87;85.27;100157.41;5180027;28;20439;-78
2021/08/26 11:14:07;;;;;;;5.70;1.98;;;;;;;19.54;84.36;100153.91;5179296;28;20030;-78
2021/08/26 11:16:40;;;;;;;6.97;1.70;;;;;;;19.80;84.74;100161.47;5179468;28;20443;-80
2021/08/26 11:19:10;;;;;;;5.47;1.50;;;;;;;19.59;82.64;100154.41;5178839;28;20095;-78
2021/08/26 11:21:50;;;;;;;9.13;1.70;;;;;;;19.74;80.38;100151.38;5179428;28;20480;-78
2021/08/26 11:24:23;;;;;;;4.72;1.35;;;;;;;19.45;81.16;100152.81;5173605;28;20057;-81
2021/08/26 11:27:04;;;;;;;4.60;1.38;;;;;;;19.76;81.72;100152.09;5177187;28;20034;-78
2021/08/26 11:29:36;;;;;;;5.10;1.20;;;;;;;19.89;78.28;100144.84;5178842;28;20040;-81
2021/08/26 11:32:09;;;;;;;4.30;1.48;;;;;;;19.94;78.89;100137.34;5178348;28;20488;-80
2021/08/26 11:34:43;;;;;;;6.05;1.27;;;;;;;20.07;77.38;100143.38;5179082;28;20033;-80
2021/08/26 11:37:29;;;;;;;5.53;1.42;;;;;;;20.10;77.20;100137.00;5178214;28;20073;-79
2021/08/26 11:40:06;;;;;;;;;;;;;;;20.41;76.49;100137.00;5178714;28;20022;-79
2021/08/26 11:42:39;;;;;;;;;;;;;;;20.16;74.48;100133.84;5178393;28;19920;-80
2021/08/26 11:45:11;;;;;;;6.13;1.08;;;;;;;20.08;74.91;100141.56;5176656;28;19924;-79
2021/08/26 11:47:54;;;;;;;5.63;1.55;;;;;;;19.81;74.72;100134.00;5169748;28;20487;-79
2021/08/26 11:50:43;;;;;;;3.67;1.30;;;;;;;19.64;76.47;100141.63;5175847;28;20708;-80